sensor_id;sensor_type;location;lat;lon;timestamp;pressure;altitude;pressure_sealevel;temperature;humidity
58973;BME280;44750;52.040;7.472;2022-07-06T00:02:19;101565.72;;;16.04;100.00
58973;BME280;44750;52.040;7.472;2022-07-06T00:07:19;101525.75;;;15.86;100.00
58973;BME280;44750;52.040;7.472;2022-07-06T00:12:19;101535.97;;;15.84;100.00
58973;BME280;44750;52.040;7.472;2022-07-06T00:17:19;101544.81;;;15.78;100.00
58973;BME280;44750;52.040;7.472;2022-07-06T00:22:19;101593.13;;;15.86;100.00
58973;BME280;44750;52.040;7.472;2022-07-06T00:27:20;101614.88;;;16.04;100.00
58973;BME280;44750;52.040;7.472;2022-07-06T00:32:20;101619.16;;;16.07;100.00
58973;BME280;44750;52.040;7.472;2022-07-06T00:37:20;101604.97;;;16.03;100.00
58973;BME280;44750;52.040;7.472;2022-07-06T00:42:20;101625.44;;;16.07;100.00
58973;BME280;44750;52.040;7.472;2022-07-06T00:47:21;101616.25;;;16.08;100.00
58973;BME280;44750;52.040;7.472;2022-07-06T00:52:21;101599.66;;;15.93;100.00
58973;BME280;44750;52.040;7.472;2022-07-06T00:57:21;101627.63;;;15.95;100.00
58973;BME280;44750;52.040;7.472;2022-07-06T01:02:22;101602.38;;;15.85;100.00
58973;BME280;44750;52.040;7.472;2022-07-06T01:07:22;101627.78;;;15.85;100.00
58973;BME280;44750;52.040;7.472;2022-07-06T01:12:23;101644.16;;;15.85;100.00
58973;BME280;44750;52.040;7.472;2022-07-06T01:17:24;101625.00;;;15.77;100.00
58973;BME280;44750;52.040;7.472;2022-07-06T01:22:25;101638.47;;;15.79;100.00
58973;BME280;44750;52.040;7.472;2022-07-06T01:27:25;101645.78;;;15.70;100.00
58973;BME280;44750;52.040;7.472;2022-07-06T01:32:25;101660.13;;;15.72;100.00
58973;BME280;44750;52.040;7.472;2022-07-06T01:37:26;101613.66;;;15.55;100.00
58973;BME280;44750;52.040;7.472;2022-07-06T01:42:27;101635.97;;;15.51;100.00
58973;BME280;44750;52.040;7.472;2022-07-06T01:47:27;101655.41;;;15.48;100.00
58973;BME280;44750;52.040;7.472;2022-07-06T01:52:27;101629.56;;;15.34;100.00
58973;BME280;44750;52.040;7.472;2022-07-06T01:57:27;101646.44;;;15.29;100.00
58973;BME280;44750;52.040;7.472;2022-07-06T02:02:28;101676.97;;;15.33;100.00
58973;BME280;44750;52.040;7.472;2022-07-06T02:07:28;101635.28;;;15.14;100.00
58973;BME280;44750;52.040;7.472;2022-07-06T02:12:28;101632.78;;;15.03;100.00
58973;BME280;44750;52.040;7.472;2022-07-06T02:17:28;101618.72;;;14.90;100.00
58973;BME280;44750;52.040;7.472;2022-07-06T02:22:28;101652.31;;;14.90;100.00
58973;BME280;44750;52.040;7.472;2022-07-06T02:27:29;101683.69;;;14.94;100.00
58973;BME280;44750;52.040;7.472;2022-07-06T02:32:29;101700.41;;;14.99;100.00
58973;BME280;44750;52.040;7.472;2022-07-06T02:37:29;101683.84;;;14.93;100.00
58973;BME280;44750;52.040;7.472;2022-07-06T02:42:31;101694.72;;;14.93;100.00
58973;BME280;44750;52.040;7.472;2022-07-06T02:47:31;101667.34;;;14.76;100.00
58973;BME280;44750;52.040;7.472;2022-07-06T02:52:31;101699.22;;;14.76;100.00
58973;BME280;44750;52.040;7.472;2022-07-06T02:57:31;101694.44;;;14.78;100.00
58973;BME280;44750;52.040;7.472;2022-07-06T03:02:32;101708.41;;;14.75;100.00
58973;BME280;44750;52.040;7.472;2022-07-06T03:07:32;101703.41;;;14.70;100.00
58973;BME280;44750;52.040;7.472;2022-07-06T03:12:32;101693.72;;;14.58;100.00
58973;BME280;44750;52.040;7.472;2022-07-06T03:17:33;101728.59;;;14.54;99.12
58973;BME280;44750;52.040;7.472;2022-07-06T03:22:33;101750.53;;;14.52;97.93
58973;BME280;44750;52.040;7.472;2022-07-06T03:27:33;101753.09;;;14.54;97.44
58973;BME280;44750;52.040;7.472;2022-07-06T03:32:33;101733.41;;;14.42;96.98
58973;BME280;44750;52.040;7.472;2022-07-06T03:37:33;101739.47;;;14.36;96.16
58973;BME280;44750;52.040;7.472;2022-07-06T03:42:35;101758.63;;;14.44;95.67
58973;BME280;44750;52.040;7.472;2022-07-06T03:47:35;101783.16;;;14.44;94.69
58973;BME280;44750;52.040;7.472;2022-07-06T03:52:36;101782.69;;;14.49;94.54
58973;BME280;44750;52.040;7.472;2022-07-06T03:57:37;101762.97;;;14.37;95.17
58973;BME280;44750;52.040;7.472;2022-07-06T04:02:37;101779.59;;;14.34;94.07
58973;BME280;44750;52.040;7.472;2022-07-06T04:07:37;101797.00;;;14.33;92.26
58973;BME280;44750;52.040;7.472;2022-07-06T04:12:41;101840.19;;;14.46;90.60
58973;BME280;44750;52.040;7.472;2022-07-06T04:17:42;101855.34;;;14.58;89.18
58973;BME280;44750;52.040;7.472;2022-07-06T04:22:42;101867.47;;;14.74;89.07
58973;BME280;44750;52.040;7.472;2022-07-06T04:27:43;101859.13;;;14.75;90.09
58973;BME280;44750;52.040;7.472;2022-07-06T04:32:43;101874.91;;;14.81;90.13
58973;BME280;44750;52.040;7.472;2022-07-06T04:37:43;101874.44;;;14.86;90.40
58973;BME280;44750;52.040;7.472;2022-07-06T04:42:43;101878.59;;;14.90;90.12
58973;BME280;44750;52.040;7.472;2022-07-06T04:47:44;101909.75;;;15.05;89.94
58973;BME280;44750;52.040;7.472;2022-07-06T04:52:44;101894.25;;;15.06;90.00
58973;BME280;44750;52.040;7.472;2022-07-06T04:57:44;101923.97;;;15.27;88.90
58973;BME280;44750;52.040;7.472;2022-07-06T05:02:46;101923.81;;;15.29;89.76
58973;BME280;44750;52.040;7.472;2022-07-06T05:07:46;101960.47;;;15.44;88.47
58973;BME280;44750;52.040;7.472;2022-07-06T05:12:48;101949.00;;;15.59;88.25
58973;BME280;44750;52.040;7.472;2022-07-06T05:17:48;101982.16;;;15.82;87.62
58973;BME280;44750;52.040;7.472;2022-07-06T05:22:48;101960.03;;;15.85;88.24
58973;BME280;44750;52.040;7.472;2022-07-06T05:27:48;101953.25;;;15.89;88.66
58973;BME280;44750;52.040;7.472;2022-07-06T05:32:48;101971.69;;;15.95;88.52
58973;BME280;44750;52.040;7.472;2022-07-06T05:37:49;102009.59;;;16.16;87.78
58973;BME280;44750;52.040;7.472;2022-07-06T05:42:49;101995.31;;;16.23;88.71
58973;BME280;44750;52.040;7.472;2022-07-06T05:47:49;101997.44;;;16.29;89.83
58973;BME280;44750;52.040;7.472;2022-07-06T05:53:03;102033.75;;;16.47;89.66
58973;BME280;44750;52.040;7.472;2022-07-06T05:58:03;102025.66;;;16.64;91.14
58973;BME280;44750;52.040;7.472;2022-07-06T06:03:03;102017.84;;;16.69;93.01
58973;BME280;44750;52.040;7.472;2022-07-06T06:08:04;102033.66;;;16.83;94.10
58973;BME280;44750;52.040;7.472;2022-07-06T06:13:04;101932.03;;;16.62;98.49
58973;BME280;44750;52.040;7.472;2022-07-06T06:18:04;101897.59;;;16.43;99.91
58973;BME280;44750;52.040;7.472;2022-07-06T06:23:04;101958.13;;;16.56;97.39
58973;BME280;44750;52.040;7.472;2022-07-06T06:28:06;101981.47;;;16.77;97.36
58973;BME280;44750;52.040;7.472;2022-07-06T06:33:16;101992.00;;;16.90;99.38
58973;BME280;44750;52.040;7.472;2022-07-06T06:38:18;101984.53;;;17.00;100.00
58973;BME280;44750;52.040;7.472;2022-07-06T06:43:19;101988.00;;;17.10;100.00
58973;BME280;44750;52.040;7.472;2022-07-06T06:48:19;101969.53;;;17.20;100.00
58973;BME280;44750;52.040;7.472;2022-07-06T06:53:19;101931.41;;;17.19;100.00
58973;BME280;44750;52.040;7.472;2022-07-06T06:58:20;101874.75;;;16.95;100.00
58973;BME280;44750;52.040;7.472;2022-07-06T07:03:20;101837.44;;;16.77;100.00
58973;BME280;44750;52.040;7.472;2022-07-06T07:08:20;101801.84;;;16.61;100.00
58973;BME280;44750;52.040;7.472;2022-07-06T07:13:20;101841.81;;;16.62;100.00
58973;BME280;44750;52.040;7.472;2022-07-06T07:18:21;101848.81;;;16.64;100.00
58973;BME280;44750;52.040;7.472;2022-07-06T07:23:21;101891.03;;;16.70;100.00
58973;BME280;44750;52.040;7.472;2022-07-06T07:28:21;101959.38;;;16.96;100.00
58973;BME280;44750;52.040;7.472;2022-07-06T07:33:21;101942.13;;;16.96;100.00
58973;BME280;44750;52.040;7.472;2022-07-06T07:38:21;102024.84;;;17.32;100.00
58973;BME280;44750;52.040;7.472;2022-07-06T07:43:22;101965.16;;;17.44;100.00
58973;BME280;44750;52.040;7.472;2022-07-06T07:48:22;102010.03;;;17.68;100.00
58973;BME280;44750;52.040;7.472;2022-07-06T07:53:22;101945.03;;;17.86;100.00
58973;BME280;44750;52.040;7.472;2022-07-06T07:58:22;102116.31;;;18.57;100.00
58973;BME280;44750;52.040;7.472;2022-07-06T08:03:23;101996.66;;;18.72;100.00
58973;BME280;44750;52.040;7.472;2022-07-06T08:08:23;101956.72;;;18.69;100.00
58973;BME280;44750;52.040;7.472;2022-07-06T08:13:23;102016.41;;;19.24;100.00
58973;BME280;44750;52.040;7.472;2022-07-06T08:18:24;102073.38;;;19.93;100.00
58973;BME280;44750;52.040;7.472;2022-07-06T08:23:24;101953.44;;;20.00;100.00
58973;BME280;44750;52.040;7.472;2022-07-06T08:28:24;101960.44;;;20.41;100.00
58973;BME280;44750;52.040;7.472;2022-07-06T08:33:24;102106.63;;;21.35;100.00
58973;BME280;44750;52.040;7.472;2022-07-06T08:38:24;101770.84;;;20.54;100.00
58973;BME280;44750;52.040;7.472;2022-07-06T08:43:25;101616.75;;;19.89;100.00
58973;BME280;44750;52.040;7.472;2022-07-06T08:48:27;101679.00;;;19.97;100.00
58973;BME280;44750;52.040;7.472;2022-07-06T08:53:33;101709.41;;;20.10;100.00
58973;BME280;44750;52.040;7.472;2022-07-06T08:58:34;101607.81;;;20.02;100.00
58973;BME280;44750;52.040;7.472;2022-07-06T09:03:34;101770.28;;;20.44;100.00
58973;BME280;44750;52.040;7.472;2022-07-06T09:08:35;101877.03;;;21.43;100.00
58973;BME280;44750;52.040;7.472;2022-07-06T09:13:35;101798.31;;;21.77;100.00
58973;BME280;44750;52.040;7.472;2022-07-06T09:18:37;101657.66;;;21.57;100.00
58973;BME280;44750;52.040;7.472;2022-07-06T09:23:38;101396.97;;;20.52;100.00
58973;BME280;44750;52.040;7.472;2022-07-06T09:28:45;101472.38;;;20.65;100.00
58973;BME280;44750;52.040;7.472;2022-07-06T09:34:08;101540.25;;;20.79;100.00
58973;BME280;44750;52.040;7.472;2022-07-06T09:39:25;101413.28;;;20.54;100.00
58973;BME280;44750;52.040;7.472;2022-07-06T09:49:28;101561.97;;;21.02;100.00
58973;BME280;44750;52.040;7.472;2022-07-06T09:54:28;101522.47;;;21.17;100.00
58973;BME280;44750;52.040;7.472;2022-07-06T09:59:30;101529.50;;;21.26;100.00
58973;BME280;44750;52.040;7.472;2022-07-06T10:04:31;101416.69;;;20.98;100.00
58973;BME280;44750;52.040;7.472;2022-07-06T10:09:31;101482.06;;;21.31;100.00
58973;BME280;44750;52.040;7.472;2022-07-06T10:14:33;101333.94;;;20.93;100.00
58973;BME280;44750;52.040;7.472;2022-07-06T10:19:33;101425.31;;;21.36;100.00
58973;BME280;44750;52.040;7.472;2022-07-06T10:24:34;101596.75;;;22.00;100.00
58973;BME280;44750;52.040;7.472;2022-07-06T10:29:36;101646.56;;;22.54;100.00
58973;BME280;44750;52.040;7.472;2022-07-06T10:34:36;101586.09;;;22.86;100.00
58973;BME280;44750;52.040;7.472;2022-07-06T10:39:37;101321.56;;;21.91;100.00
58973;BME280;44750;52.040;7.472;2022-07-06T10:44:44;101282.78;;;21.72;100.00
58973;BME280;44750;52.040;7.472;2022-07-06T10:49:48;101218.38;;;21.60;100.00
58973;BME280;44750;52.040;7.472;2022-07-06T10:54:49;101424.78;;;22.08;100.00
58973;BME280;44750;52.040;7.472;2022-07-06T11:00:00;101335.06;;;22.19;100.00
58973;BME280;44750;52.040;7.472;2022-07-06T11:05:01;101240.31;;;22.00;100.00
58973;BME280;44750;52.040;7.472;2022-07-06T11:10:01;101210.94;;;21.67;100.00
58973;BME280;44750;52.040;7.472;2022-07-06T11:15:02;101487.63;;;22.46;100.00
58973;BME280;44750;52.040;7.472;2022-07-06T11:20:11;101374.03;;;22.63;100.00
58973;BME280;44750;52.040;7.472;2022-07-06T11:25:12;101442.97;;;22.83;100.00
58973;BME280;44750;52.040;7.472;2022-07-06T11:30:13;101411.91;;;23.01;100.00
58973;BME280;44750;52.040;7.472;2022-07-06T11:35:21;101126.13;;;22.28;100.00
58973;BME280;44750;52.040;7.472;2022-07-06T11:40:21;101134.09;;;21.97;100.00
58973;BME280;44750;52.040;7.472;2022-07-06T11:45:27;101324.81;;;22.60;100.00
58973;BME280;44750;52.040;7.472;2022-07-06T11:50:28;101646.13;;;24.03;100.00
58973;BME280;44750;52.040;7.472;2022-07-06T11:55:28;101338.63;;;23.69;100.00
58973;BME280;44750;52.040;7.472;2022-07-06T12:00:28;101423.31;;;23.88;100.00
58973;BME280;44750;52.040;7.472;2022-07-06T12:05:30;101418.53;;;24.28;96.76
58973;BME280;44750;52.040;7.472;2022-07-06T12:10:32;101432.00;;;24.61;93.31
58973;BME280;44750;52.040;7.472;2022-07-06T12:15:32;101193.47;;;24.22;87.52
58973;BME280;44750;52.040;7.472;2022-07-06T12:20:32;101430.28;;;25.04;84.43
58973;BME280;44750;52.040;7.472;2022-07-06T12:25:35;101292.78;;;25.21;77.70
58973;BME280;44750;52.040;7.472;2022-07-06T12:30:45;101009.91;;;24.16;80.01
58973;BME280;44750;52.040;7.472;2022-07-06T12:35:45;101230.97;;;24.48;86.19
58973;BME280;44750;52.040;7.472;2022-07-06T12:40:46;101292.75;;;24.98;86.62
58973;BME280;44750;52.040;7.472;2022-07-06T12:45:46;101217.22;;;24.91;86.16
58973;BME280;44750;52.040;7.472;2022-07-06T12:50:46;101084.94;;;24.50;83.59
58973;BME280;44750;52.040;7.472;2022-07-06T12:55:47;100917.56;;;24.06;82.20
58973;BME280;44750;52.040;7.472;2022-07-06T13:00:47;101242.66;;;24.99;81.13
58973;BME280;44750;52.040;7.472;2022-07-06T13:05:50;100983.97;;;24.29;79.36
58973;BME280;44750;52.040;7.472;2022-07-06T13:10:51;100868.09;;;23.85;80.96
58973;BME280;44750;52.040;7.472;2022-07-06T13:15:51;101018.41;;;24.45;79.23
58973;BME280;44750;52.040;7.472;2022-07-06T13:20:51;101146.19;;;25.08;77.73
58973;BME280;44750;52.040;7.472;2022-07-06T13:25:51;100911.09;;;24.35;79.27
58973;BME280;44750;52.040;7.472;2022-07-06T13:30:52;100806.44;;;23.85;80.29
58973;BME280;44750;52.040;7.472;2022-07-06T13:35:52;100882.53;;;23.87;81.29
58973;BME280;44750;52.040;7.472;2022-07-06T13:40:52;100968.66;;;24.15;82.76
58973;BME280;44750;52.040;7.472;2022-07-06T13:45:53;100902.38;;;23.96;82.88
58973;BME280;44750;52.040;7.472;2022-07-06T13:50:53;100905.09;;;23.84;84.20
58973;BME280;44750;52.040;7.472;2022-07-06T13:55:54;100984.28;;;24.09;84.41
58973;BME280;44750;52.040;7.472;2022-07-06T14:00:54;100865.81;;;23.82;84.90
58973;BME280;44750;52.040;7.472;2022-07-06T14:05:56;101048.91;;;24.27;85.28
58973;BME280;44750;52.040;7.472;2022-07-06T14:10:57;100926.84;;;24.11;83.94
58973;BME280;44750;52.040;7.472;2022-07-06T14:15:57;100858.59;;;23.81;85.06
58973;BME280;44750;52.040;7.472;2022-07-06T14:20:58;100970.72;;;24.08;85.25
58973;BME280;44750;52.040;7.472;2022-07-06T14:25:58;100833.00;;;23.86;84.65
58973;BME280;44750;52.040;7.472;2022-07-06T14:30:58;100890.91;;;23.69;87.38
58973;BME280;44750;52.040;7.472;2022-07-06T14:35:59;100878.41;;;23.78;86.06
58973;BME280;44750;52.040;7.472;2022-07-06T14:40:59;100911.88;;;23.88;84.66
58973;BME280;44750;52.040;7.472;2022-07-06T14:45:59;100979.53;;;24.40;81.94
58973;BME280;44750;52.040;7.472;2022-07-06T14:50:59;100885.72;;;24.27;81.38
58973;BME280;44750;52.040;7.472;2022-07-06T14:56:00;100887.50;;;24.57;79.45
58973;BME280;44750;52.040;7.472;2022-07-06T15:01:00;100849.00;;;24.55;78.64
58973;BME280;44750;52.040;7.472;2022-07-06T15:06:00;100730.31;;;24.30;77.24
58973;BME280;44750;52.040;7.472;2022-07-06T15:11:00;100745.53;;;24.03;79.80
58973;BME280;44750;52.040;7.472;2022-07-06T15:16:01;100694.31;;;24.01;78.91
58973;BME280;44750;52.040;7.472;2022-07-06T15:21:01;100890.19;;;24.63;77.90
58973;BME280;44750;52.040;7.472;2022-07-06T15:26:02;100924.00;;;25.18;76.10
58973;BME280;44750;52.040;7.472;2022-07-06T15:31:03;100830.97;;;25.05;75.43
58973;BME280;44750;52.040;7.472;2022-07-06T15:36:03;100786.56;;;25.00;75.07
58973;BME280;44750;52.040;7.472;2022-07-06T15:41:03;100565.84;;;23.80;77.74
58973;BME280;44750;52.040;7.472;2022-07-06T15:46:04;100743.56;;;24.28;77.92
58973;BME280;44750;52.040;7.472;2022-07-06T15:51:04;100737.75;;;24.41;77.86
58973;BME280;44750;52.040;7.472;2022-07-06T15:56:04;100791.38;;;24.64;77.22
58973;BME280;44750;52.040;7.472;2022-07-06T16:01:05;100683.63;;;24.45;76.54
58973;BME280;44750;52.040;7.472;2022-07-06T16:06:06;100686.72;;;24.49;76.41
58973;BME280;44750;52.040;7.472;2022-07-06T16:11:06;100638.31;;;24.34;76.22
58973;BME280;44750;52.040;7.472;2022-07-06T16:16:06;100596.38;;;24.26;76.13
58973;BME280;44750;52.040;7.472;2022-07-06T16:21:07;100637.16;;;24.18;78.58
58973;BME280;44750;52.040;7.472;2022-07-06T16:26:08;100694.72;;;24.33;79.44
58973;BME280;44750;52.040;7.472;2022-07-06T16:31:08;100671.25;;;24.36;78.96
58973;BME280;44750;52.040;7.472;2022-07-06T16:36:09;100632.00;;;24.22;78.83
58973;BME280;44750;52.040;7.472;2022-07-06T16:41:10;100481.31;;;23.67;79.38
58973;BME280;44750;52.040;7.472;2022-07-06T16:46:10;100575.00;;;23.68;81.56
58973;BME280;44750;52.040;7.472;2022-07-06T16:51:10;100599.03;;;23.68;82.35
58973;BME280;44750;52.040;7.472;2022-07-06T16:56:11;100444.94;;;23.17;83.96
58973;BME280;44750;52.040;7.472;2022-07-06T17:01:11;100663.09;;;23.53;86.22
58973;BME280;44750;52.040;7.472;2022-07-06T17:06:11;100600.06;;;23.26;87.66
58973;BME280;44750;52.040;7.472;2022-07-06T17:11:11;100559.53;;;22.84;90.12
58973;BME280;44750;52.040;7.472;2022-07-06T17:16:12;100683.44;;;23.04;91.75
58973;BME280;44750;52.040;7.472;2022-07-06T17:21:13;100724.00;;;23.04;92.72
58973;BME280;44750;52.040;7.472;2022-07-06T17:26:13;100775.44;;;23.17;93.18
58973;BME280;44750;52.040;7.472;2022-07-06T17:31:13;100770.59;;;23.12;93.86
58973;BME280;44750;52.040;7.472;2022-07-06T17:36:15;100759.16;;;22.97;94.72
58973;BME280;44750;52.040;7.472;2022-07-06T17:41:15;100769.56;;;22.95;96.49
58973;BME280;44750;52.040;7.472;2022-07-06T17:46:15;100746.66;;;22.64;99.33
58973;BME280;44750;52.040;7.472;2022-07-06T17:51:16;100816.63;;;22.69;100.00
58973;BME280;44750;52.040;7.472;2022-07-06T17:56:16;100805.97;;;22.54;100.00
58973;BME280;44750;52.040;7.472;2022-07-06T18:01:16;100832.94;;;22.52;100.00
58973;BME280;44750;52.040;7.472;2022-07-06T18:06:16;100881.09;;;22.31;100.00
58973;BME280;44750;52.040;7.472;2022-07-06T18:11:17;100938.91;;;22.19;100.00
58973;BME280;44750;52.040;7.472;2022-07-06T18:16:17;100944.25;;;21.82;100.00
58973;BME280;44750;52.040;7.472;2022-07-06T18:21:17;101021.44;;;21.76;100.00
58973;BME280;44750;52.040;7.472;2022-07-06T18:26:17;101052.84;;;21.68;100.00
58973;BME280;44750;52.040;7.472;2022-07-06T18:31:18;101077.00;;;21.66;100.00
58973;BME280;44750;52.040;7.472;2022-07-06T18:36:18;101099.69;;;21.61;100.00
58973;BME280;44750;52.040;7.472;2022-07-06T18:41:18;101088.91;;;21.53;100.00
58973;BME280;44750;52.040;7.472;2022-07-06T18:46:18;101056.16;;;21.25;100.00
58973;BME280;44750;52.040;7.472;2022-07-06T18:51:19;101086.88;;;21.08;100.00
58973;BME280;44750;52.040;7.472;2022-07-06T18:56:19;101106.56;;;21.05;100.00
58973;BME280;44750;52.040;7.472;2022-07-06T19:01:19;101132.38;;;21.17;100.00
58973;BME280;44750;52.040;7.472;2022-07-06T19:06:20;101099.59;;;21.02;100.00
58973;BME280;44750;52.040;7.472;2022-07-06T19:11:20;101130.47;;;20.98;100.00
58973;BME280;44750;52.040;7.472;2022-07-06T19:16:20;101136.63;;;20.93;100.00
58973;BME280;44750;52.040;7.472;2022-07-06T19:21:20;101171.97;;;21.03;100.00
58973;BME280;44750;52.040;7.472;2022-07-06T19:26:20;101156.56;;;20.95;100.00
58973;BME280;44750;52.040;7.472;2022-07-06T19:31:21;101154.84;;;20.94;100.00
58973;BME280;44750;52.040;7.472;2022-07-06T19:36:21;101152.09;;;20.87;100.00
58973;BME280;44750;52.040;7.472;2022-07-06T19:41:22;101185.97;;;20.95;100.00
58973;BME280;44750;52.040;7.472;2022-07-06T19:46:22;101174.09;;;20.87;100.00
58973;BME280;44750;52.040;7.472;2022-07-06T19:51:23;101195.47;;;20.92;100.00
58973;BME280;44750;52.040;7.472;2022-07-06T19:56:23;101211.16;;;20.98;100.00
58973;BME280;44750;52.040;7.472;2022-07-06T20:01:24;101165.63;;;20.82;100.00
58973;BME280;44750;52.040;7.472;2022-07-06T20:06:24;101177.47;;;20.76;100.00
58973;BME280;44750;52.040;7.472;2022-07-06T20:11:34;101195.03;;;20.75;100.00
58973;BME280;44750;52.040;7.472;2022-07-06T20:16:35;101208.59;;;20.77;100.00
58973;BME280;44750;52.040;7.472;2022-07-06T20:21:35;101236.31;;;20.88;100.00
58973;BME280;44750;52.040;7.472;2022-07-06T20:26:35;101188.91;;;20.73;100.00
58973;BME280;44750;52.040;7.472;2022-07-06T20:31:35;101171.28;;;20.61;100.00
58973;BME280;44750;52.040;7.472;2022-07-06T20:36:36;101154.53;;;20.42;100.00
58973;BME280;44750;52.040;7.472;2022-07-06T20:41:36;101182.84;;;20.36;100.00
58973;BME280;44750;52.040;7.472;2022-07-06T20:46:36;101175.22;;;20.25;100.00
58973;BME280;44750;52.040;7.472;2022-07-06T20:51:36;101153.16;;;20.11;100.00
58973;BME280;44750;52.040;7.472;2022-07-06T20:56:37;101116.28;;;19.85;100.00
58973;BME280;44750;52.040;7.472;2022-07-06T21:01:37;101155.16;;;19.82;100.00
58973;BME280;44750;52.040;7.472;2022-07-06T21:06:37;101143.00;;;19.63;100.00
58973;BME280;44750;52.040;7.472;2022-07-06T21:11:37;101124.53;;;19.50;100.00
58973;BME280;44750;52.040;7.472;2022-07-06T21:16:38;101169.34;;;19.58;100.00
58973;BME280;44750;52.040;7.472;2022-07-06T21:21:38;101175.88;;;19.57;100.00
58973;BME280;44750;52.040;7.472;2022-07-06T21:26:38;101214.81;;;19.67;100.00
58973;BME280;44750;52.040;7.472;2022-07-06T21:31:38;101226.88;;;19.72;100.00
58973;BME280;44750;52.040;7.472;2022-07-06T21:36:39;101223.72;;;19.69;100.00
58973;BME280;44750;52.040;7.472;2022-07-06T21:41:39;101237.44;;;19.69;100.00
58973;BME280;44750;52.040;7.472;2022-07-06T21:46:39;101242.94;;;19.69;100.00
58973;BME280;44750;52.040;7.472;2022-07-06T21:51:39;101256.69;;;19.69;100.00
58973;BME280;44750;52.040;7.472;2022-07-06T21:56:40;101252.63;;;19.65;100.00
58973;BME280;44750;52.040;7.472;2022-07-06T22:01:40;101241.34;;;19.53;100.00
58973;BME280;44750;52.040;7.472;2022-07-06T22:06:40;101268.66;;;19.61;100.00
58973;BME280;44750;52.040;7.472;2022-07-06T22:11:40;101288.13;;;19.66;100.00
58973;BME280;44750;52.040;7.472;2022-07-06T22:16:40;101266.78;;;19.68;100.00
58973;BME280;44750;52.040;7.472;2022-07-06T22:21:41;101261.31;;;19.68;100.00
58973;BME280;44750;52.040;7.472;2022-07-06T22:26:41;101253.47;;;19.65;100.00
58973;BME280;44750;52.040;7.472;2022-07-06T22:31:41;101225.72;;;19.53;100.00
58973;BME280;44750;52.040;7.472;2022-07-06T22:36:42;101212.34;;;19.44;100.00
58973;BME280;44750;52.040;7.472;2022-07-06T22:41:42;101258.66;;;19.53;100.00
58973;BME280;44750;52.040;7.472;2022-07-06T22:46:42;101262.06;;;19.55;100.00
58973;BME280;44750;52.040;7.472;2022-07-06T22:51:43;101215.09;;;19.44;100.00
58973;BME280;44750;52.040;7.472;2022-07-06T22:56:43;101257.31;;;19.43;100.00
58973;BME280;44750;52.040;7.472;2022-07-06T23:01:45;101265.34;;;19.44;100.00
58973;BME280;44750;52.040;7.472;2022-07-06T23:06:45;101284.63;;;19.51;100.00
58973;BME280;44750;52.040;7.472;2022-07-06T23:11:46;101265.53;;;19.43;100.00
58973;BME280;44750;52.040;7.472;2022-07-06T23:16:46;101264.88;;;19.41;100.00
58973;BME280;44750;52.040;7.472;2022-07-06T23:21:46;101250.72;;;19.37;100.00
58973;BME280;44750;52.040;7.472;2022-07-06T23:26:46;101224.78;;;19.18;100.00
58973;BME280;44750;52.040;7.472;2022-07-06T23:31:47;101283.16;;;19.27;100.00
58973;BME280;44750;52.040;7.472;2022-07-06T23:36:47;101246.31;;;19.14;100.00
58973;BME280;44750;52.040;7.472;2022-07-06T23:41:47;101291.19;;;19.28;100.00
58973;BME280;44750;52.040;7.472;2022-07-06T23:46:47;101255.84;;;19.18;100.00
58973;BME280;44750;52.040;7.472;2022-07-06T23:51:47;101264.47;;;19.15;100.00
58973;BME280;44750;52.040;7.472;2022-07-06T23:56:48;101289.81;;;19.17;100.00
